createdAt,value
2024-01-25T00:03:57.481Z,6.75
2024-01-25T00:08:59.867Z,7.08
2024-01-25T00:14:02.450Z,7.21
2024-01-25T00:19:04.734Z,7.44
2024-01-25T00:24:07.080Z,7.66
2024-01-25T00:29:09.487Z,7.64
2024-01-25T00:34:12.230Z,7.47
2024-01-25T00:39:14.910Z,7.31
2024-01-25T00:44:17.445Z,7.28
2024-01-25T00:49:20.021Z,7.12
2024-01-25T00:54:22.679Z,6.83
2024-01-25T00:59:25.165Z,7.01
2024-01-25T01:04:28.084Z,6.92
2024-01-25T01:09:36.949Z,6.82
2024-01-25T01:14:39.089Z,6.63
2024-01-25T01:19:41.341Z,6.43
2024-01-25T01:24:43.708Z,6.65
2024-01-25T01:29:49.203Z,6.56
2024-01-25T01:34:51.499Z,6.33
2024-01-25T01:39:57.443Z,6.40
2024-01-25T01:44:59.633Z,6.24
2024-01-25T01:50:03.141Z,6.30
2024-01-25T01:55:06.505Z,6.40
2024-01-25T02:00:12.861Z,6.19
2024-01-25T02:05:15.175Z,6.34
2024-01-25T02:10:18.175Z,6.04
2024-01-25T02:15:21.353Z,6.08
2024-01-25T02:20:27.271Z,6.09
2024-01-25T02:25:29.666Z,6.28
2024-01-25T02:30:35.380Z,6.14
2024-01-25T02:35:39.371Z,6.10
2024-01-25T02:40:41.744Z,6.13
2024-01-25T02:45:44.027Z,6.23
2024-01-25T02:50:46.621Z,6.33
2024-01-25T02:55:49.027Z,6.32
2024-01-25T03:00:56.796Z,6.37
2024-01-25T03:05:59.141Z,6.06
2024-01-25T03:11:01.726Z,5.90
2024-01-25T03:16:04.177Z,6.12
2024-01-25T03:21:06.566Z,6.14
2024-01-25T03:26:08.710Z,6.14
2024-01-25T03:31:11.098Z,5.89
2024-01-25T03:36:16.884Z,6.01
2024-01-25T03:41:19.275Z,5.80
2024-01-25T03:46:21.631Z,5.93
2024-01-25T03:51:25.483Z,5.98
2024-01-25T03:56:28.335Z,5.90
2024-01-25T04:01:32.313Z,5.75
2024-01-25T04:06:34.880Z,5.80
2024-01-25T04:11:39.023Z,6.01
2024-01-25T04:16:42.219Z,6.12
2024-01-25T04:21:44.758Z,6.09
2024-01-25T04:26:47.269Z,5.84
2024-01-25T04:31:50.036Z,5.84
2024-01-25T04:36:52.539Z,5.81
2024-01-25T04:41:54.831Z,5.94
2024-01-25T04:46:57.992Z,5.75
2024-01-25T04:52:00.394Z,5.65
2024-01-25T04:57:03.994Z,5.65
2024-01-25T05:02:06.539Z,5.81
2024-01-25T05:07:09.049Z,5.69
2024-01-25T05:12:11.227Z,5.43
2024-01-25T05:17:14.561Z,5.60
2024-01-25T05:22:17.926Z,5.62
2024-01-25T05:27:20.948Z,5.60
2024-01-25T05:32:24.065Z,5.34
2024-01-25T05:37:26.282Z,5.44
2024-01-25T05:42:30.378Z,5.92
2024-01-25T05:47:34.385Z,5.99
2024-01-25T05:52:38.966Z,5.93
2024-01-25T05:57:41.385Z,6.03
2024-01-25T06:02:44.968Z,5.99
2024-01-25T06:07:47.508Z,5.87
2024-01-25T06:12:50.043Z,6.11
2024-01-25T06:17:52.854Z,6.08
2024-01-25T06:22:55.308Z,6.10
2024-01-25T06:27:58.678Z,6.06
2024-01-25T06:33:01.129Z,5.99
2024-01-25T06:38:03.451Z,6.18
2024-01-25T06:43:05.821Z,6.43
2024-01-25T06:48:10.296Z,6.37
2024-01-25T06:53:12.414Z,6.39
2024-01-25T06:58:14.698Z,6.41
2024-01-25T07:03:17.342Z,6.45
2024-01-25T07:08:19.907Z,6.50
2024-01-25T07:13:22.633Z,6.60
2024-01-25T07:18:26.226Z,6.65
2024-01-25T07:23:28.548Z,6.67
2024-01-25T07:28:30.941Z,6.69
2024-01-25T07:33:33.487Z,6.68
2024-01-25T07:38:35.666Z,6.94
2024-01-25T07:43:37.838Z,6.94
2024-01-25T07:48:40.421Z,6.90
2024-01-25T07:53:43.086Z,7.03
2024-01-25T07:58:45.304Z,7.05
2024-01-25T08:03:47.583Z,7.02
2024-01-25T08:08:50.179Z,6.81
2024-01-25T08:13:52.634Z,6.80
2024-01-25T08:18:55.385Z,7.02
2024-01-25T08:23:58.316Z,7.35
2024-01-25T08:29:00.568Z,7.44
2024-01-25T08:34:03.124Z,7.79
2024-01-25T08:39:06.655Z,7.71
2024-01-25T08:44:08.820Z,7.28
2024-01-25T08:49:13.700Z,7.48
2024-01-25T08:54:16.018Z,7.77
2024-01-25T08:59:18.209Z,8.04
2024-01-25T09:04:22.249Z,8.28
2024-01-25T09:09:26.023Z,8.24
2024-01-25T09:14:28.226Z,8.29
2024-01-25T09:19:30.662Z,8.26
2024-01-25T09:24:33.019Z,8.21
2024-01-25T09:29:35.315Z,8.55
2024-01-25T09:34:41.410Z,8.54
2024-01-25T09:39:44.379Z,8.39
2024-01-25T09:44:46.801Z,8.42
2024-01-25T09:49:49.526Z,8.36
2024-01-25T09:54:55.872Z,8.47
2024-01-25T09:59:58.438Z,8.02
2024-01-25T10:05:00.902Z,8.16
2024-01-25T10:10:03.208Z,8.27
2024-01-25T10:15:06.572Z,8.36
2024-01-25T10:20:12.528Z,8.50
2024-01-25T10:25:18.476Z,8.65
2024-01-25T10:30:21.725Z,8.68
2024-01-25T10:35:27.790Z,8.97
2024-01-25T10:40:30.850Z,8.95
2024-01-25T10:45:33.410Z,9.12
2024-01-25T10:50:36.193Z,9.15
2024-01-25T10:55:38.785Z,9.45
2024-01-25T11:00:41.394Z,9.74
2024-01-25T11:05:44.302Z,10.09
2024-01-25T11:10:52.330Z,10.01
2024-01-25T11:15:55.005Z,10.18
2024-01-25T11:21:02.057Z,10.50
2024-01-25T11:26:04.442Z,10.51
2024-01-25T11:31:06.849Z,10.80
2024-01-25T11:36:09.241Z,10.98
2024-01-25T11:41:11.668Z,10.92
2024-01-25T11:46:15.551Z,11.18
2024-01-25T11:51:17.796Z,11.59
2024-01-25T11:56:24.571Z,11.87
2024-01-25T12:01:27.700Z,11.89
2024-01-25T12:06:31.477Z,11.91
2024-01-25T12:11:33.720Z,12.02
2024-01-25T12:16:38.305Z,12.12
2024-01-25T12:21:45.588Z,12.59
2024-01-25T12:26:48.810Z,12.80
2024-01-25T12:31:51.022Z,12.91
2024-01-25T12:36:54.021Z,12.96
2024-01-25T12:41:56.511Z,13.19
2024-01-25T12:47:02.902Z,13.37
2024-01-25T12:52:05.738Z,13.44
2024-01-25T12:57:09.417Z,13.58
2024-01-25T13:02:13.683Z,13.73
2024-01-25T13:07:16.315Z,13.89
2024-01-25T13:12:18.570Z,14.10
2024-01-25T13:17:22.795Z,14.23
2024-01-25T13:22:25.951Z,14.06
2024-01-25T13:27:28.650Z,13.91
2024-01-25T13:32:30.970Z,13.84
2024-01-25T13:37:33.402Z,13.84
2024-01-25T13:42:35.715Z,13.59
2024-01-25T13:47:38.118Z,13.62
2024-01-25T13:52:40.375Z,13.53
2024-01-25T13:57:42.630Z,13.72
2024-01-25T14:02:46.627Z,14.09
2024-01-25T14:07:48.907Z,14.22
2024-01-25T14:12:52.707Z,14.36
2024-01-25T14:17:55.208Z,14.29
2024-01-25T14:22:57.614Z,14.16
2024-01-25T14:28:00.220Z,14.05
2024-01-25T14:33:05.125Z,13.99
2024-01-25T14:38:08.030Z,13.64
2024-01-25T14:43:10.226Z,13.68
2024-01-25T14:48:13.191Z,13.35
2024-01-25T14:53:15.621Z,13.34
2024-01-25T14:58:23.750Z,13.18
2024-01-25T15:03:29.192Z,13.33
2024-01-25T15:08:31.636Z,13.27
2024-01-25T15:13:34.136Z,13.11
2024-01-25T15:18:36.592Z,12.93
2024-01-25T15:23:38.901Z,12.86
2024-01-25T15:28:41.113Z,12.34
2024-01-25T15:33:43.530Z,12.41
2024-01-25T15:38:45.879Z,12.44
2024-01-25T15:43:48.069Z,12.29
2024-01-25T15:48:52.594Z,12.06
2024-01-25T15:53:54.868Z,11.94
2024-01-25T15:58:57.048Z,11.88
2024-01-25T16:03:59.325Z,11.65
2024-01-25T16:09:05.146Z,11.43
2024-01-25T16:14:07.382Z,11.59
2024-01-25T16:19:09.700Z,11.61
2024-01-25T16:24:12.002Z,11.72
2024-01-25T16:29:14.930Z,11.77
2024-01-25T16:34:17.357Z,11.86
2024-01-25T16:39:19.908Z,11.44
2024-01-25T16:44:22.470Z,11.09
2024-01-25T16:49:25.041Z,11.37
2024-01-25T16:54:27.497Z,11.56
2024-01-25T16:59:31.433Z,11.43
2024-01-25T17:04:33.711Z,11.58
2024-01-25T17:09:35.909Z,11.44
2024-01-25T17:14:38.611Z,11.64
2024-01-25T17:19:41.429Z,11.65
2024-01-25T17:24:43.862Z,10.96
2024-01-25T17:29:49.565Z,11.54
2024-01-25T17:35:17.896Z,11.23
2024-01-25T17:40:18.400Z,11.11
2024-01-25T17:45:20.912Z,10.86
2024-01-25T17:50:43.986Z,10.75
2024-01-25T17:55:49.363Z,10.77
2024-01-25T18:00:51.921Z,10.82
2024-01-25T18:05:55.487Z,10.79
2024-01-25T18:11:00.858Z,10.44
2024-01-25T18:16:13.139Z,10.32
2024-01-25T18:21:15.581Z,10.47
2024-01-25T18:26:18.030Z,10.13
2024-01-25T18:31:20.542Z,10.50
2024-01-25T18:36:22.846Z,10.16
2024-01-25T18:41:25.328Z,10.22
2024-01-25T18:46:27.728Z,10.06
2024-01-25T18:51:30.219Z,10.13
2024-01-25T18:56:32.767Z,9.87
2024-01-25T19:01:35.716Z,10.14
2024-01-25T19:06:39.226Z,10.11
2024-01-25T19:11:41.449Z,10.18
2024-01-25T19:16:45.495Z,10.08
2024-01-25T19:21:48.869Z,9.90
2024-01-25T19:26:51.113Z,9.63
2024-01-25T19:31:54.120Z,9.34
2024-01-25T19:36:56.407Z,9.98
2024-01-25T19:41:58.880Z,10.05
2024-01-25T19:47:01.097Z,9.76
2024-01-25T19:52:05.030Z,9.81
2024-01-25T19:57:07.736Z,9.79
2024-01-25T20:02:10.491Z,9.79
2024-01-25T20:07:13.144Z,9.84
2024-01-25T20:12:15.404Z,9.73
2024-01-25T20:17:19.576Z,9.66
2024-01-25T20:22:21.903Z,9.50
2024-01-25T20:27:24.161Z,9.37
2024-01-25T20:32:28.807Z,9.54
2024-01-25T20:37:31.186Z,9.50
2024-01-25T20:42:33.412Z,9.31
2024-01-25T20:47:35.677Z,9.15
2024-01-25T20:52:37.838Z,8.94
2024-01-25T20:57:39.988Z,8.89
2024-01-25T21:02:42.496Z,8.71
2024-01-25T21:07:45.133Z,8.70
2024-01-25T21:12:47.607Z,8.27
2024-01-25T21:17:49.961Z,8.26
2024-01-25T21:22:52.350Z,8.44
2024-01-25T21:27:55.438Z,8.73
2024-01-25T21:32:57.648Z,8.81
2024-01-25T21:38:00.091Z,8.66
2024-01-25T21:43:02.997Z,8.77
2024-01-25T21:48:10.840Z,8.62
2024-01-25T21:53:13.344Z,8.97
2024-01-25T21:58:15.723Z,8.92
2024-01-25T22:03:18.114Z,8.93
2024-01-25T22:08:20.974Z,8.86
2024-01-25T22:13:23.147Z,8.82
2024-01-25T22:18:25.399Z,8.76
2024-01-25T22:23:28.675Z,8.87
2024-01-25T22:28:30.911Z,8.95
2024-01-25T22:33:33.164Z,8.80
2024-01-25T22:38:35.520Z,8.65
2024-01-25T22:43:40.757Z,8.70
2024-01-25T22:48:43.042Z,8.54
2024-01-25T22:53:45.254Z,8.70
2024-01-25T22:58:48.751Z,8.67
2024-01-25T23:03:58.657Z,8.49
2024-01-25T23:09:01.236Z,8.47
2024-01-25T23:14:06.474Z,8.40
2024-01-25T23:19:22.858Z,8.30
2024-01-25T23:24:27.480Z,7.87
2024-01-25T23:29:30.163Z,7.64
2024-01-25T23:34:34.055Z,8.40
2024-01-25T23:39:36.783Z,8.45
2024-01-25T23:44:39.194Z,8.23
2024-01-25T23:49:45.359Z,8.92
2024-01-25T23:54:47.980Z,8.31
2024-01-25T23:59:50.471Z,8.60
